Time;durP1;ratioP1;P1;durP2;ratioP2;P2;SDS_P1;SDS_P2;PMS_P1;PMS_P2;Temp;Humidity;BMP_temperature;BMP_pressure;BME280_temperature;BME280_humidity;BME280_pressure;Samples;Min_cycle;Max_cycle;Signal;HPM_P1;HPM_P2
2021/07/20 00:00:36;;;;;;;13.17;8.13;;;;;;;25.64;61.09;98843.34;3405205;28;20138;-70
2021/07/20 00:02:35;;;;;;;11.60;7.97;;;;;;;25.62;61.13;98850.25;3403931;29;20107;-71
2021/07/20 00:04:16;;;;;;;12.15;7.97;;;;;;;25.59;61.49;98845.41;3404608;28;20047;-69
2021/07/20 00:05:57;;;;;;;13.90;8.67;;;;;;;25.58;61.45;98861.00;3403703;29;20519;-71
2021/07/20 00:07:39;;;;;;;16.07;8.87;;;;;;;25.54;61.25;98846.34;3409770;28;20094;-72
2021/07/20 00:09:19;;;;;;;13.13;8.70;;;;;;;25.56;61.06;98846.06;3416822;28;20375;-72
2021/07/20 00:11:02;;;;;;;8.30;7.03;;;;;;;25.56;60.92;98846.84;3415810;28;20050;-72
2021/07/20 00:12:43;;;;;;;12.23;7.97;;;;;;;25.58;61.23;98849.25;3412807;28;20036;-71
2021/07/20 00:14:23;;;;;;;11.32;8.32;;;;;;;25.60;60.90;98852.47;3404056;28;20043;-71
2021/07/20 00:16:05;;;;;;;13.63;7.60;;;;;;;25.54;60.62;98845.56;3413709;28;20054;-71
2021/07/20 00:17:48;;;;;;;;;;;;;;;25.59;60.27;98854.41;3417049;28;20138;-69
2021/07/20 00:19:29;;;;;;;14.55;7.80;;;;;;;25.50;60.66;98850.81;3416076;28;20392;-71
2021/07/20 00:21:10;;;;;;;12.40;8.90;;;;;;;25.45;61.25;98856.41;3405857;28;20043;-70
2021/07/20 00:22:50;;;;;;;15.10;8.67;;;;;;;25.41;60.73;98850.00;3403658;28;20099;-70
2021/07/20 00:24:31;;;;;;;14.10;8.20;;;;;;;25.37;61.14;98846.28;3416176;28;20122;-71
2021/07/20 00:26:18;;;;;;;12.18;7.85;;;;;;;25.37;61.29;98854.44;3416141;28;20039;-69
2021/07/20 00:28:00;;;;;;;13.65;8.63;;;;;;;25.37;60.80;98854.44;3416796;28;20039;-69
2021/07/20 00:29:43;;;;;;;11.25;7.93;;;;;;;25.35;61.17;98849.31;3412942;28;20503;-71
2021/07/20 00:31:24;;;;;;;12.55;8.15;;;;;;;25.38;61.01;98850.63;3404869;28;20043;-70
2021/07/20 00:33:20;;;;;;;10.70;7.85;;;;;;;25.39;60.75;98852.22;3393572;29;20052;-71
2021/07/20 00:35:02;;;;;;;19.67;8.35;;;;;;;25.38;60.40;98856.88;3412671;28;20045;-71
2021/07/20 00:36:42;;;;;;;9.93;7.22;;;;;;;25.39;60.78;98846.78;3396128;29;20111;-70
2021/07/20 00:38:25;;;;;;;16.70;9.00;;;;;;;25.36;60.39;98850.13;3400508;28;20067;-71
2021/07/20 00:40:12;;;;;;;14.23;7.65;;;;;;;25.34;60.42;98855.88;3389079;29;20463;-71
2021/07/20 00:41:54;;;;;;;17.80;8.40;;;;;;;25.35;60.25;98852.06;3400639;29;20059;-69
2021/07/20 00:43:35;;;;;;;;;;;;;;;25.38;60.01;98850.63;3389581;29;20044;-71
2021/07/20 00:45:17;;;;;;;9.73;7.13;;;;;;;25.35;60.16;98852.06;3406684;28;19926;-70
2021/07/20 00:46:58;;;;;;;12.30;7.80;;;;;;;25.37;60.26;98849.00;3413410;28;20134;-70
2021/07/20 00:48:38;;;;;;;12.37;7.80;;;;;;;25.36;60.38;98845.47;3401471;29;20557;-71
2021/07/20 00:50:38;;;;;;;9.57;7.57;;;;;;;25.37;60.06;98849.00;3392938;29;20547;-72
2021/07/20 00:52:19;;;;;;;15.52;8.10;;;;;;;25.38;59.77;98851.44;3395987;29;20455;-70
2021/07/20 00:54:01;;;;;;;13.98;8.05;;;;;;;25.33;59.42;98848.81;3395174;29;20087;-71
2021/07/20 00:55:42;;;;;;;8.50;6.95;;;;;;;25.28;59.47;98856.34;3399278;29;20174;-70
2021/07/20 00:57:23;;;;;;;13.37;7.77;;;;;;;25.23;59.55;98846.38;3388594;29;20052;-72
2021/07/20 00:59:04;;;;;;;13.07;7.38;;;;;;;25.21;59.59;98843.94;3373834;29;20044;-71
2021/07/20 01:00:51;;;;;;;10.18;7.20;;;;;;;25.23;59.72;98841.72;3387612;29;20055;-69
2021/07/20 01:02:33;;;;;;;13.23;8.23;;;;;;;25.28;59.77;98845.44;3400192;29;20044;-70
2021/07/20 01:04:16;;;;;;;11.07;7.33;;;;;;;25.28;59.47;98848.16;3413075;28;20593;-71
2021/07/20 01:05:57;;;;;;;13.95;7.82;;;;;;;25.26;59.65;98832.09;3391090;29;20543;-71
2021/07/20 01:07:42;;;;;;;11.32;7.93;;;;;;;25.25;59.50;98838.69;3389886;29;20050;-72
2021/07/20 01:09:26;;;;;;;11.57;8.13;;;;;;;25.27;59.85;98841.06;3399770;29;20126;-72
2021/07/20 01:11:07;;;;;;;9.43;6.90;;;;;;;25.28;59.29;98845.44;3399442;29;20593;-71
2021/07/20 01:12:49;;;;;;;9.40;7.22;;;;;;;25.29;59.34;98842.38;3399372;29;20134;-72
2021/07/20 01:14:30;;;;;;;8.95;7.30;;;;;;;25.29;59.14;98847.84;3399818;29;20146;-72
2021/07/20 01:16:13;;;;;;;10.80;7.57;;;;;;;25.28;59.21;98839.97;3399070;29;20127;-71
2021/07/20 01:17:56;;;;;;;13.25;7.78;;;;;;;25.23;59.19;98844.44;3397549;29;20046;-71
2021/07/20 01:19:43;;;;;;;9.77;7.32;;;;;;;25.22;59.53;98836.56;3411215;28;20054;-70
2021/07/20 01:21:26;;;;;;;9.40;7.85;;;;;;;25.19;59.62;98839.91;3388759;29;20040;-69
2021/07/20 01:23:21;;;;;;;10.85;7.50;;;;;;;25.16;59.04;98841.34;3386518;29;20052;-71
2021/07/20 01:25:09;;;;;;;12.10;7.15;;;;;;;25.13;59.60;98839.22;3402195;29;20423;-70
2021/07/20 01:26:50;;;;;;;9.68;7.00;;;;;;;25.16;59.49;98848.72;3411389;28;20059;-71
2021/07/20 01:28:32;;;;;;;9.95;7.35;;;;;;;25.17;59.40;98845.69;3401141;29;20114;-70
2021/07/20 01:30:14;;;;;;;18.08;7.72;;;;;;;25.15;59.48;98841.63;3384749;29;20412;-70
2021/07/20 01:32:01;;;;;;;11.10;8.23;;;;;;;25.17;59.62;98837.50;3397032;29;20446;-71
2021/07/20 01:33:47;;;;;;;10.02;7.25;;;;;;;25.15;59.24;98836.97;3386282;29;20083;-70
2021/07/20 01:35:31;;;;;;;11.15;7.90;;;;;;;25.19;59.04;98832.53;3374298;29;20092;-70
2021/07/20 01:37:13;;;;;;;9.23;7.45;;;;;;;25.18;58.51;98847.28;3374061;29;20041;-70
2021/07/20 01:38:57;;;;;;;9.43;7.35;;;;;;;25.17;59.03;98837.50;3371632;29;20048;-70
2021/07/20 01:40:43;;;;;;;12.48;8.05;;;;;;;25.17;58.72;98840.25;3390048;29;20458;-70
2021/07/20 01:42:25;;;;;;;;;;;;;;;25.21;58.57;98843.13;3386320;29;20123;-71
2021/07/20 01:44:09;;;;;;;11.93;7.72;;;;;;;25.17;58.77;98840.25;3373098;29;20572;-71
2021/07/20 01:45:51;;;;;;;11.10;8.02;;;;;;;25.16;58.75;98843.28;3374378;29;20044;-70
2021/07/20 01:47:36;;;;;;;13.45;7.65;;;;;;;25.17;58.80;98840.25;3383813;29;20052;-72
2021/07/20 01:49:18;;;;;;;12.75;8.68;;;;;;;25.13;58.74;98841.13;3383728;29;20040;-70
2021/07/20 01:51:05;;;;;;;8.27;7.13;;;;;;;25.10;58.79;98839.84;3388524;29;20086;-70
2021/07/20 01:52:47;;;;;;;9.00;6.88;;;;;;;25.10;59.10;98849.94;3385980;29;20048;-72
2021/07/20 01:54:27;;;;;;;;;;;;;;;25.14;58.79;98845.47;3392343;29;20111;-71
2021/07/20 01:56:11;;;;;;;11.18;6.97;;;;;;;25.09;58.99;98840.13;3398656;29;19921;-71
2021/07/20 01:57:54;;;;;;;9.60;7.20;;;;;;;25.08;58.73;98852.97;3385884;29;20064;-72
2021/07/20 01:59:46;;;;;;;11.77;7.75;;;;;;;25.06;58.65;98843.50;3386884;29;20130;-71
2021/07/20 02:10:06;;;;;;;10.50;8.05;;;;;;;25.06;58.73;98844.28;3394123;29;20044;-70
2021/07/20 02:11:57;;;;;;;11.07;8.15;;;;;;;25.05;58.32;98847.34;3387837;29;20048;-69
2021/07/20 02:14:01;;;;;;;11.32;7.55;;;;;;;25.02;58.48;98848.78;3389633;29;20040;-71
2021/07/20 02:15:55;;;;;;;13.07;8.18;;;;;;;25.02;58.57;98852.31;3399146;29;20086;-70
2021/07/20 02:17:44;;;;;;;13.25;7.72;;;;;;;25.02;58.60;98849.56;3400990;29;20060;-70
2021/07/20 02:19:33;;;;;;;11.65;8.07;;;;;;;24.98;58.66;98847.78;3412275;28;20110;-69
2021/07/20 02:21:21;;;;;;;12.25;7.40;;;;;;;25.00;58.36;98856.47;3380773;29;20052;-70
2021/07/20 02:23:03;;;;;;;9.75;7.05;;;;;;;25.02;58.46;98855.03;3386120;29;20074;-70
2021/07/20 02:24:44;;;;;;;10.90;7.75;;;;;;;25.00;58.09;98851.00;3400129;28;20067;-70
2021/07/20 02:26:27;;;;;;;12.02;7.85;;;;;;;25.05;58.20;98850.06;3393330;29;20048;-71
2021/07/20 02:28:09;;;;;;;9.30;8.00;;;;;;;25.03;58.00;98855.81;3412688;28;20580;-70
2021/07/20 02:29:56;;;;;;;14.68;7.63;;;;;;;25.03;58.35;98858.56;3395579;29;20062;-71
2021/07/20 02:31:38;;;;;;;9.80;7.28;;;;;;;25.03;58.10;98856.63;3385686;29;20039;-70
2021/07/20 02:33:20;;;;;;;10.43;7.70;;;;;;;25.03;58.59;98851.19;3385528;29;20082;-70
2021/07/20 02:35:05;;;;;;;13.25;8.73;;;;;;;25.03;57.99;98847.66;3384296;29;20075;-71
2021/07/20 02:36:50;;;;;;;15.35;7.88;;;;;;;25.02;58.25;98843.31;3380582;29;20076;-72
2021/07/20 02:38:33;;;;;;;11.00;7.68;;;;;;;25.09;58.21;98848.31;3383877;29;20451;-69
2021/07/20 02:40:15;;;;;;;10.10;7.78;;;;;;;25.13;58.18;98847.41;3405993;28;20039;-71
2021/07/20 02:41:59;;;;;;;9.07;7.20;;;;;;;25.16;57.92;98852.25;3396438;29;20563;-70
2021/07/20 02:43:43;;;;;;;14.20;8.85;;;;;;;25.21;57.40;98851.31;3384714;29;20044;-70
2021/07/20 02:45:29;;;;;;;10.15;7.57;;;;;;;25.20;57.77;98861.44;3400845;28;20044;-70
2021/07/20 02:47:11;;;;;;;15.32;8.27;;;;;;;25.26;58.00;98858.56;3381231;29;20040;-69
2021/07/20 02:48:52;;;;;;;9.23;6.90;;;;;;;25.28;57.35;98856.34;3372458;29;20531;-71
2021/07/20 02:50:37;;;;;;;11.38;7.55;;;;;;;25.29;57.24;98860.66;3386723;29;20756;-70
2021/07/20 02:52:30;;;;;;;10.15;6.85;;;;;;;25.29;57.70;98845.09;3393613;29;20511;-71
2021/07/20 02:54:12;;;;;;;10.82;7.53;;;;;;;25.29;57.47;98847.03;3372232;29;20092;-71
2021/07/20 02:55:54;;;;;;;11.10;7.60;;;;;;;25.32;57.26;98846.41;3385266;29;20050;-72
2021/07/20 02:57:36;;;;;;;11.15;7.55;;;;;;;25.29;57.47;98836.13;3385268;29;20040;-72
2021/07/20 02:59:23;;;;;;;10.35;7.65;;;;;;;25.35;57.36;98843.03;3372357;29;20045;-71
2021/07/20 03:01:20;;;;;;;11.32;7.78;;;;;;;25.42;57.14;98849.66;3380631;29;20206;-72
2021/07/20 03:03:02;;;;;;;12.10;7.30;;;;;;;25.45;56.83;98845.50;3385508;29;20040;-72
2021/07/20 03:04:50;;;;;;;11.05;7.53;;;;;;;25.48;56.99;98850.34;3385771;29;20064;-71
2021/07/20 03:06:34;;;;;;;9.98;7.22;;;;;;;25.49;56.93;98854.69;3385594;29;20048;-69
2021/07/20 03:08:18;;;;;;;11.70;7.25;;;;;;;25.52;56.57;98856.78;3385654;29;20048;-72
2021/07/20 03:10:10;;;;;;;11.63;7.60;;;;;;;25.53;56.69;98861.13;3374772;29;20048;-71
2021/07/20 03:11:56;;;;;;;11.55;8.07;;;;;;;25.55;56.29;98861.59;3385254;29;20534;-70
2021/07/20 03:13:43;;;;;;;10.15;7.82;;;;;;;25.52;56.79;98856.78;3393128;29;20139;-69
2021/07/20 03:15:25;;;;;;;12.40;8.43;;;;;;;25.49;56.23;98851.16;3382851;29;20040;-68
2021/07/20 03:17:12;;;;;;;11.95;8.15;;;;;;;25.48;56.89;98855.81;3383685;29;20531;-71
2021/07/20 03:18:54;;;;;;;10.73;7.68;;;;;;;25.48;56.48;98857.72;3396516;29;20044;-71
2021/07/20 03:20:38;;;;;;;14.70;8.23;;;;;;;25.45;56.71;98861.88;3398308;29;20075;-71
2021/07/20 03:22:26;;;;;;;11.98;7.50;;;;;;;25.44;56.77;98854.81;3395110;29;20032;-71
2021/07/20 03:24:11;;;;;;;11.95;9.20;;;;;;;25.48;56.73;98858.53;3394060;29;20040;-70
2021/07/20 03:25:58;;;;;;;15.35;7.90;;;;;;;25.50;56.12;98863.66;3385640;29;20040;-72
2021/07/20 03:27:41;;;;;;;8.73;7.25;;;;;;;25.48;56.32;98861.28;3383470;29;20076;-72
2021/07/20 03:29:27;;;;;;;10.20;7.68;;;;;;;25.51;56.13;98862.56;3396441;29;20051;-70
2021/07/20 03:31:09;;;;;;;12.95;7.60;;;;;;;25.52;56.41;98858.72;3384155;29;20084;-69
2021/07/20 03:32:51;;;;;;;8.10;6.97;;;;;;;25.57;56.15;98870.28;3372870;29;20139;-71
2021/07/20 03:34:48;;;;;;;13.20;7.65;;;;;;;25.57;56.14;98872.22;3403110;28;20051;-69
2021/07/20 03:36:29;;;;;;;8.93;7.00;;;;;;;25.57;56.34;98878.47;3397729;29;20039;-70
2021/07/20 03:38:11;;;;;;;8.90;6.95;;;;;;;25.58;55.68;98877.38;3398170;29;20486;-70
2021/07/20 03:39:57;;;;;;;13.38;8.60;;;;;;;25.53;55.86;98863.88;3384632;29;20045;-73
2021/07/20 03:41:38;;;;;;;13.73;8.50;;;;;;;25.60;55.58;98877.84;3387225;29;20059;-70
2021/07/20 03:43:23;;;;;;;11.77;7.78;;;;;;;25.62;55.50;98880.25;3388881;29;20039;-71
2021/07/20 03:45:09;;;;;;;16.75;8.43;;;;;;;25.61;55.34;98874.00;3385969;29;20554;-71
2021/07/20 03:46:51;;;;;;;11.65;7.82;;;;;;;25.62;55.59;98878.34;3399716;29;20122;-71
2021/07/20 03:48:33;;;;;;;19.17;7.63;;;;;;;25.62;55.45;98872.88;3387308;29;20052;-70
2021/07/20 03:50:30;;;;;;;14.77;8.40;;;;;;;25.61;55.25;98876.75;3396690;29;20047;-71
2021/07/20 03:52:13;;;;;;;10.52;7.10;;;;;;;25.63;55.18;98879.94;3385341;29;20048;-71
2021/07/20 03:53:54;;;;;;;9.75;7.35;;;;;;;25.66;54.98;98883.97;3393729;29;20071;-71
2021/07/20 03:55:35;;;;;;;10.32;7.38;;;;;;;25.68;54.96;98879.78;3398715;29;20055;-71
2021/07/20 03:57:20;;;;;;;12.73;7.68;;;;;;;25.72;55.38;98881.94;3389791;29;20044;-72
2021/07/20 03:59:08;;;;;;;9.93;8.20;;;;;;;25.78;55.25;98880.66;3389821;29;20512;-71
2021/07/20 04:01:04;;;;;;;11.20;6.78;;;;;;;25.82;54.69;98870.72;3390581;29;20095;-71
2021/07/20 04:05:09;;;;;;;12.50;8.32;;;;;;;25.88;54.67;98874.94;3387423;29;20063;-71
2021/07/20 04:06:54;;;;;;;13.95;7.60;;;;;;;25.88;54.49;98877.66;3389569;29;20047;-73
2021/07/20 04:08:51;;;;;;;12.50;7.30;;;;;;;25.91;54.83;98871.56;3392439;29;20032;-71
2021/07/20 04:10:32;;;;;;;12.45;6.55;;;;;;;25.95;55.12;98878.03;3415862;28;20051;-72
2021/07/20 04:12:30;;;;;;;14.55;7.32;;;;;;;26.02;54.41;98875.66;3402166;29;20047;-73
2021/07/20 04:14:21;;;;;;;8.73;6.50;;;;;;;26.04;54.17;98878.84;3389742;29;20048;-70
2021/07/20 04:16:12;;;;;;;10.68;7.43;;;;;;;26.03;53.62;98879.97;3403747;29;20056;-79
2021/07/20 04:17:53;;;;;;;13.10;7.72;;;;;;;25.97;53.97;98880.41;3393708;29;20068;-77
2021/07/20 04:19:35;;;;;;;13.27;7.95;;;;;;;25.90;53.83;98872.69;3401770;29;20063;-77
2021/07/20 04:21:23;;;;;;;11.80;7.78;;;;;;;25.82;53.57;98882.44;3402437;29;20059;-76
2021/07/20 04:23:07;;;;;;;12.20;7.15;;;;;;;25.73;53.32;98878.06;3392954;29;20083;-79
2021/07/20 04:24:55;;;;;;;14.55;7.78;;;;;;;25.70;53.81;98890.41;3401643;29;20052;-79
2021/07/20 04:26:44;;;;;;;11.10;8.00;;;;;;;25.65;53.75;98880.44;3393621;29;20052;-79
2021/07/20 04:28:27;;;;;;;16.65;7.47;;;;;;;25.63;53.37;98885.38;3382197;29;20073;-81
2021/07/20 04:30:11;;;;;;;19.20;8.57;;;;;;;25.63;53.80;98890.06;3375786;29;20072;-78
2021/07/20 04:31:55;;;;;;;9.48;7.22;;;;;;;25.63;53.40;98890.84;3379853;29;20055;-79
2021/07/20 04:33:39;;;;;;;10.85;7.43;;;;;;;25.62;53.56;98888.47;3376413;29;20048;-75
2021/07/20 04:35:49;;;;;;;12.23;7.15;;;;;;;25.64;53.34;98894.41;3380765;29;20051;-75
2021/07/20 04:37:30;;;;;;;13.65;6.97;;;;;;;25.63;53.95;98890.06;3383008;29;20061;-75
2021/07/20 04:39:13;;;;;;;12.63;7.78;;;;;;;25.60;53.84;98886.03;3375494;29;20052;-76
2021/07/20 04:40:55;;;;;;;12.43;8.02;;;;;;;25.61;53.62;98892.31;3399674;29;20044;-77
2021/07/20 04:42:37;;;;;;;16.65;8.07;;;;;;;25.58;53.71;98893.75;3386093;29;20044;-76
2021/07/20 04:44:19;;;;;;;;;;;;;;;25.66;53.61;98898.44;3383875;29;20099;-76
2021/07/20 04:46:20;;;;;;;10.93;7.32;;;;;;;25.62;53.64;98897.44;3391642;29;19922;-76
2021/07/20 04:48:03;;;;;;;18.25;7.97;;;;;;;25.65;53.82;98899.53;3379205;29;20040;-76
2021/07/20 04:49:57;;;;;;;11.48;7.53;;;;;;;25.67;53.76;98908.22;3400468;29;20150;-75
2021/07/20 04:51:38;;;;;;;10.88;8.25;;;;;;;25.64;53.77;98897.94;3387343;29;20054;-76
2021/07/20 04:53:20;;;;;;;12.10;7.05;;;;;;;25.68;53.23;98901.63;3386644;29;20079;-75
2021/07/20 04:55:03;;;;;;;12.32;7.38;;;;;;;25.72;53.39;98898.31;3373752;29;20139;-77
2021/07/20 04:56:45;;;;;;;17.38;7.40;;;;;;;25.74;53.55;98896.03;3384127;29;20040;-75
2021/07/20 04:58:26;;;;;;;11.00;7.47;;;;;;;25.75;53.09;98900.41;3386429;29;20055;-78
2021/07/20 05:00:09;;;;;;;13.68;7.38;;;;;;;25.77;53.27;98903.63;3403096;28;20409;-77
2021/07/20 05:01:50;;;;;;;12.40;7.18;;;;;;;25.74;53.33;98896.03;3389103;29;20427;-80
2021/07/20 05:03:33;;;;;;;9.63;6.57;;;;;;;25.81;53.48;98899.94;3377358;29;20040;-76
2021/07/20 05:05:22;;;;;;;10.85;7.00;;;;;;;25.85;53.38;98898.22;3385910;29;20048;-76
2021/07/20 05:07:05;;;;;;;10.32;6.82;;;;;;;25.86;52.92;98899.03;3374172;29;20041;-78
2021/07/20 05:08:48;;;;;;;11.98;7.35;;;;;;;25.88;53.22;98899.50;3398835;29;20179;-77
2021/07/20 05:10:29;;;;;;;;;;;;;;;25.96;52.92;98904.19;3389852;29;20040;-78
2021/07/20 05:12:28;;;;;;;13.13;6.95;;;;;;;25.94;52.58;98903.69;3376735;29;19970;-78
2021/07/20 05:14:19;;;;;;;10.57;7.10;;;;;;;25.96;52.91;98900.66;3388235;29;20067;-79
2021/07/20 05:16:05;;;;;;;9.98;6.60;;;;;;;26.02;52.74;98905.69;3387445;29;20071;-77
2021/07/20 05:18:07;;;;;;;11.38;7.28;;;;;;;26.06;52.72;98897.66;3388380;29;20056;-79
2021/07/20 05:19:49;;;;;;;12.25;6.80;;;;;;;26.07;52.97;98905.53;3386433;29;20044;-77
2021/07/20 05:21:37;;;;;;;12.15;7.70;;;;;;;26.13;52.51;98908.91;3389385;29;20080;-75
2021/07/20 05:23:19;;;;;;;11.20;7.78;;;;;;;26.18;52.48;98907.97;3389576;29;20345;-74
2021/07/20 05:25:01;;;;;;;14.10;7.88;;;;;;;26.16;52.73;98908.28;3389586;29;20092;-78
2021/07/20 05:26:45;;;;;;;17.05;7.88;;;;;;;26.18;52.62;98906.06;3392165;29;20040;-76
2021/07/20 05:28:30;;;;;;;12.85;7.15;;;;;;;26.23;52.41;98911.38;3381544;29;20044;-79
2021/07/20 05:30:13;;;;;;;15.25;7.63;;;;;;;26.25;52.35;98911.03;3385854;29;20126;-77
2021/07/20 05:31:55;;;;;;;12.63;8.00;;;;;;;26.29;51.92;98909.28;3401802;28;20055;-77
2021/07/20 05:33:37;;;;;;;13.07;7.18;;;;;;;26.37;52.07;98913.16;3399110;29;20055;-78
2021/07/20 05:35:25;;;;;;;11.20;7.15;;;;;;;26.43;51.71;98912.66;3382519;29;20530;-76
2021/07/20 05:37:06;;;;;;;10.30;7.43;;;;;;;26.49;51.41;98919.63;3374851;29;20036;-76
2021/07/20 05:39:00;;;;;;;11.60;7.28;;;;;;;26.53;51.63;98923.34;3391055;29;20048;-75
2021/07/20 05:40:57;;;;;;;14.20;7.35;;;;;;;26.60;51.93;98922.88;3391809;29;20047;-79
2021/07/20 05:42:40;;;;;;;13.55;7.32;;;;;;;26.64;52.24;98929.31;3390865;29;20040;-72
2021/07/20 05:44:22;;;;;;;16.63;6.68;;;;;;;26.72;52.41;98928.53;3388594;29;20047;-71
2021/07/20 05:46:03;;;;;;;12.43;7.05;;;;;;;26.80;52.60;98926.09;3388219;29;20512;-72
2021/07/20 05:47:49;;;;;;;13.02;6.80;;;;;;;26.89;52.58;98921.44;3385641;29;20091;-72
2021/07/20 05:49:32;;;;;;;20.17;7.30;;;;;;;26.97;51.94;98937.84;3388108;29;20099;-72
2021/07/20 05:51:13;;;;;;;17.45;7.25;;;;;;;27.03;52.31;98934.94;3398311;29;20044;-72
2021/07/20 05:53:13;;;;;;;12.80;7.07;;;;;;;27.08;51.90;98934.78;3401096;29;20472;-72
2021/07/20 05:54:55;;;;;;;14.32;7.40;;;;;;;27.10;51.77;98935.28;3387404;29;20080;-72
2021/07/20 05:56:46;;;;;;;13.20;7.80;;;;;;;27.14;51.36;98937.03;3378708;29;20172;-72
2021/07/20 05:58:49;;;;;;;14.30;7.55;;;;;;;27.21;51.48;98931.13;3399596;29;20055;-72
2021/07/20 06:00:30;;;;;;;14.40;7.40;;;;;;;27.28;51.28;98933.34;3380301;29;20040;-71
2021/07/20 06:02:24;;;;;;;12.43;6.63;;;;;;;27.34;51.24;98941.09;3378811;29;20072;-71
2021/07/20 06:04:05;;;;;;;13.40;7.10;;;;;;;27.41;51.11;98935.91;3396131;29;20126;-73
2021/07/20 06:05:52;;;;;;;12.15;6.80;;;;;;;27.48;50.98;98935.41;3400568;29;20046;-73
2021/07/20 06:07:34;;;;;;;13.60;7.10;;;;;;;27.54;51.02;98933.31;3391311;28;20036;-72
2021/07/20 06:09:19;;;;;;;13.75;7.47;;;;;;;27.58;50.63;98935.06;3382662;29;20083;-71
2021/07/20 06:11:03;;;;;;;10.55;6.55;;;;;;;27.63;50.48;98926.69;3386309;29;20191;-71
2021/07/20 06:12:44;;;;;;;11.77;7.32;;;;;;;27.62;50.52;98918.78;3388899;29;20135;-71
2021/07/20 06:14:25;;;;;;;15.93;6.93;;;;;;;27.74;50.38;98929.06;3386856;29;20060;-72
2021/07/20 06:16:07;;;;;;;19.63;8.20;;;;;;;27.81;49.55;98932.13;3385349;29;20192;-70
2021/07/20 06:17:48;;;;;;;15.55;7.20;;;;;;;27.86;49.63;98925.69;3398029;29;20195;-73
2021/07/20 06:19:33;;;;;;;35.03;8.23;;;;;;;27.91;49.29;98930.97;3375392;29;20088;-72
2021/07/20 06:21:15;;;;;;;26.85;8.48;;;;;;;27.93;49.15;98928.69;3394201;29;20050;-71
2021/07/20 06:22:56;;;;;;;24.83;9.02;;;;;;;28.01;48.69;98931.41;3388847;29;20127;-72
2021/07/20 06:24:45;;;;;;;21.90;8.90;;;;;;;28.08;48.70;98936.38;3393451;29;20047;-71
2021/07/20 06:26:26;;;;;;;;;;;;;;;28.19;48.59;98940.38;3389346;29;20044;-71
2021/07/20 06:28:07;;;;;;;18.58;7.30;;;;;;;28.21;48.60;98942.75;3401449;29;19957;-72
2021/07/20 06:29:53;;;;;;;21.23;8.00;;;;;;;28.24;48.59;98939.34;3397802;29;20417;-71
2021/07/20 06:31:36;;;;;;;11.80;8.57;;;;;;;28.22;48.26;98936.97;3387573;29;20167;-72
2021/07/20 06:33:17;;;;;;;22.02;8.85;;;;;;;28.23;48.32;98938.53;3387562;29;20051;-72
2021/07/20 06:34:58;;;;;;;19.23;8.07;;;;;;;28.28;48.20;98941.09;3390752;29;20043;-71
2021/07/20 06:36:40;;;;;;;13.40;7.43;;;;;;;28.36;48.01;98941.38;3392688;29;20546;-70
2021/07/20 06:38:22;;;;;;;21.15;7.85;;;;;;;28.47;47.49;98948.13;3387874;29;20519;-71
2021/07/20 06:40:04;;;;;;;14.77;8.00;;;;;;;28.55;47.26;98939.03;3385352;29;20106;-71
2021/07/20 06:41:44;;;;;;;15.32;8.20;;;;;;;28.70;46.83;98949.41;3388183;29;20072;-72
2021/07/20 06:43:26;;;;;;;13.10;7.43;;;;;;;28.82;47.14;98947.91;3388333;29;20785;-71
2021/07/20 06:45:12;;;;;;;15.60;8.65;;;;;;;28.89;46.38;98950.91;3390367;28;20066;-71
2021/07/20 06:46:54;;;;;;;15.65;7.35;;;;;;;28.97;46.06;98939.06;3394454;29;20043;-70
2021/07/20 06:48:35;;;;;;;;;;;;;;;29.15;46.19;98948.00;3394044;28;20071;-70
2021/07/20 06:50:18;;;;;;;17.85;7.20;;;;;;;29.19;45.73;98940.66;3394650;29;19922;-70
2021/07/20 06:51:59;;;;;;;12.43;7.28;;;;;;;29.25;45.22;98946.75;3403423;28;20040;-71
2021/07/20 06:53:41;;;;;;;17.60;7.67;;;;;;;29.35;44.47;98949.91;3393653;29;20046;-71
2021/07/20 06:55:22;;;;;;;12.20;6.88;;;;;;;29.47;43.77;98962.84;3392069;28;20067;-70
2021/07/20 06:57:05;;;;;;;26.00;8.13;;;;;;;29.56;42.47;98949.84;3395343;29;20123;-70
2021/07/20 06:58:46;;;;;;;15.68;7.43;;;;;;;29.65;42.22;98952.53;3392506;29;20415;-71
2021/07/20 07:00:28;;;;;;;11.70;6.50;;;;;;;29.70;41.68;98949.56;3391080;29;20047;-70
2021/07/20 07:02:15;;;;;;;12.35;5.97;;;;;;;29.73;41.49;98948.06;3394615;28;20143;-70
2021/07/20 07:04:01;;;;;;;24.13;7.20;;;;;;;29.78;40.84;98956.91;3394921;28;20035;-71
2021/07/20 07:05:44;;;;;;;15.18;6.82;;;;;;;29.81;41.27;98955.41;3391876;29;20056;-72
2021/07/20 07:07:25;;;;;;;;;;;;;;;29.91;41.70;98952.22;3393657;29;20111;-69
2021/07/20 07:09:07;;;;;;;17.15;6.05;;;;;;;29.83;41.09;98947.63;3393890;29;20021;-72
2021/07/20 07:10:49;;;;;;;11.25;6.40;;;;;;;29.80;41.29;98942.81;3395071;29;20044;-70
2021/07/20 07:12:32;;;;;;;9.13;6.50;;;;;;;29.82;41.20;98946.03;3392844;29;20096;-70
2021/07/20 07:14:13;;;;;;;13.27;6.45;;;;;;;29.85;40.72;98950.84;3394608;29;20442;-70
2021/07/20 07:15:57;;;;;;;15.60;6.15;;;;;;;29.91;39.49;98941.22;3398674;28;20077;-71
2021/07/20 07:17:38;;;;;;;14.27;5.53;;;;;;;30.03;39.78;98947.91;3409669;28;20522;-72
2021/07/20 07:19:20;;;;;;;15.23;5.18;;;;;;;30.12;39.16;98943.88;3393054;29;20032;-72
2021/07/20 07:21:01;;;;;;;10.63;5.55;;;;;;;30.21;38.78;98950.06;3406204;28;20518;-70
2021/07/20 07:22:44;;;;;;;13.32;5.25;;;;;;;30.32;38.74;98953.19;3407320;28;20084;-71
2021/07/20 07:24:25;;;;;;;;;;;;;;;30.50;39.12;98941.94;3393230;29;20032;-71
2021/07/20 07:26:06;;;;;;;7.80;4.50;;;;;;;30.53;38.61;98947.56;3394087;29;20426;-71
2021/07/20 07:27:50;;;;;;;12.73;5.22;;;;;;;30.65;38.28;98955.00;3393473;29;20048;-71
2021/07/20 07:29:31;;;;;;;10.75;5.53;;;;;;;30.71;37.91;98948.09;3392977;29;20579;-71
2021/07/20 07:31:13;;;;;;;10.43;5.18;;;;;;;30.75;37.69;98953.72;3406215;28;20087;-71
2021/07/20 07:32:54;;;;;;;9.88;5.50;;;;;;;30.73;37.98;98937.56;3394447;29;20522;-71
2021/07/20 07:34:35;;;;;;;7.82;4.95;;;;;;;30.76;37.58;98945.09;3406016;28;20055;-72
2021/07/20 07:36:17;;;;;;;10.52;5.40;;;;;;;30.82;37.78;98937.44;3409805;28;20583;-70
2021/07/20 07:37:59;;;;;;;6.10;4.40;;;;;;;30.92;37.38;98939.69;3408273;28;20489;-71
2021/07/20 07:39:40;;;;;;;10.25;5.18;;;;;;;31.02;37.27;98949.44;3395315;29;20146;-73
2021/07/20 07:41:23;;;;;;;10.55;5.28;;;;;;;31.08;37.10;98942.50;3393378;29;20078;-71
2021/07/20 07:43:04;;;;;;;9.85;5.20;;;;;;;31.06;37.27;98942.09;3472851;23;20059;-73
2021/07/20 07:44:47;;;;;;;7.93;4.90;;;;;;;31.04;36.98;98944.38;3387403;29;20048;-73
2021/07/20 07:46:35;;;;;;;11.18;5.60;;;;;;;31.08;36.76;98948.84;3409516;28;20467;-71
2021/07/20 07:48:16;;;;;;;10.07;5.38;;;;;;;31.15;36.95;98941.91;3407331;28;20043;-70
2021/07/20 07:49:57;;;;;;;9.32;5.38;;;;;;;31.23;36.42;98940.97;3400377;29;20126;-70
2021/07/20 07:51:40;;;;;;;8.65;5.43;;;;;;;31.30;36.03;98939.22;3387695;29;20071;-72
2021/07/20 07:53:21;;;;;;;7.47;4.78;;;;;;;31.38;36.05;98937.47;3406058;28;20042;-73
2021/07/20 07:55:03;;;;;;;10.68;4.80;;;;;;;31.49;35.94;98937.78;3393144;29;20040;-70
2021/07/20 07:56:46;;;;;;;10.32;5.43;;;;;;;31.62;35.81;98930.22;3402684;28;20051;-73
2021/07/20 07:58:30;;;;;;;14.00;5.38;;;;;;;31.64;35.60;98939.75;3391826;29;20032;-73
2021/07/20 08:00:12;;;;;;;7.97;5.43;;;;;;;31.61;36.21;98943.22;3389015;29;20059;-71
2021/07/20 08:01:56;;;;;;;11.70;5.55;;;;;;;31.62;36.14;98942.06;3397793;28;20095;-70
2021/07/20 08:03:43;;;;;;;8.38;5.18;;;;;;;31.56;36.14;98932.47;3402286;28;20416;-72
2021/07/20 08:05:24;;;;;;;8.25;5.10;;;;;;;31.70;35.91;98943.84;3389851;29;20490;-70
2021/07/20 08:07:06;;;;;;;22.73;6.35;;;;;;;31.80;35.87;98947.22;3390635;29;20036;-70
2021/07/20 08:08:53;;;;;;;13.80;5.78;;;;;;;31.87;35.70;98955.69;3387851;29;20059;-71
2021/07/20 08:10:36;;;;;;;7.97;5.22;;;;;;;31.93;36.27;98946.00;3389893;29;20111;-71
2021/07/20 08:12:18;;;;;;;7.15;5.55;;;;;;;32.02;35.26;98954.13;3404491;28;20051;-76
2021/07/20 08:14:02;;;;;;;9.32;6.07;;;;;;;32.16;34.76;98949.75;3405912;28;20046;-75
2021/07/20 08:15:46;;;;;;;8.10;5.63;;;;;;;32.35;34.62;98956.50;3407704;28;20042;-74
2021/07/20 08:17:27;;;;;;;16.00;6.05;;;;;;;32.51;34.47;98953.75;3402925;28;20151;-74
2021/07/20 08:19:08;;;;;;;11.02;5.80;;;;;;;32.70;34.01;98944.69;3404408;28;20043;-77